Time;durP1;ratioP1;P1;durP2;ratioP2;P2;SDS_P1;SDS_P2;PMS_P1;PMS_P2;Temp;Humidity;BMP_temperature;BMP_pressure;BME280_temperature;BME280_humidity;BME280_pressure;Samples;Min_cycle;Max_cycle;Signal;HPM_P1;HPM_P2
2024/03/24 00:00:00;;;;;;;4.80;3.60;;;;;;;2.56;100.00;98352.00;444011;1246;140252;-61
2024/03/24 00:10:05;;;;;;;4.90;3.90;;;;;;;2.32;100.00;98328.69;444052;1246;433256;-61
2024/03/24 00:20:10;;;;;;;6.30;4.90;;;;;;;2.08;100.00;98326.93;444145;1249;138789;-61
2024/03/24 00:30:14;;;;;;;6.20;4.70;;;;;;;1.89;100.00;98327.83;445160;1242;138309;-60
2024/03/24 00:40:17;;;;;;;5.30;4.30;;;;;;;1.88;100.00;98321.34;446010;1246;138733;-62
2024/03/24 00:50:20;;;;;;;7.30;4.70;;;;;;;1.90;100.00;98316.91;446022;1241;138981;-62
2024/03/24 01:00:24;;;;;;;8.50;5.20;;;;;;;1.98;100.00;98303.73;446001;1245;138680;-60
2024/03/24 01:10:29;;;;;;;8.50;4.80;;;;;;;2.02;100.00;98288.23;445529;1245;138329;-59
2024/03/24 01:20:35;;;;;;;11.10;7.40;;;;;;;2.05;100.00;98260.28;445166;1241;138567;-58
2024/03/24 01:30:38;;;;;;;7.20;6.00;;;;;;;2.10;100.00;98253.80;447739;1238;138961;-60
2024/03/24 01:40:47;;;;;;;10.10;6.40;;;;;;;1.90;100.00;98240.11;446455;1241;138475;-58
2024/03/24 01:50:51;;;;;;;9.80;6.50;;;;;;;1.64;100.00;98233.64;446637;1239;138865;-62
2024/03/24 02:00:54;;;;;;;8.80;7.00;;;;;;;1.43;100.00;98235.70;446987;1238;139410;-61
2024/03/24 02:10:58;;;;;;;12.90;7.30;;;;;;;1.26;100.00;98240.29;446754;1241;138894;-62
2024/03/24 02:21:02;;;;;;;12.60;9.20;;;;;;;1.22;100.00;98251.31;446711;1241;139610;-61
2024/03/24 02:31:06;;;;;;;11.80;7.50;;;;;;;1.26;100.00;98243.38;446736;1239;138795;-58
2024/03/24 02:41:10;;;;;;;7.20;6.50;;;;;;;1.18;100.00;98243.24;447201;1239;139392;-59
2024/03/24 02:51:13;;;;;;;7.80;5.70;;;;;;;1.09;100.00;98244.34;447219;1241;138812;-58
2024/03/24 03:01:17;;;;;;;9.90;6.90;;;;;;;1.14;100.00;98244.97;447177;1237;139102;-59
2024/03/24 03:11:21;;;;;;;6.20;5.60;;;;;;;1.24;100.00;98246.23;446665;1241;138851;-60
2024/03/24 03:21:25;;;;;;;7.60;6.20;;;;;;;1.37;100.00;98258.23;446798;1239;139436;-59
2024/03/24 03:31:29;;;;;;;8.30;6.70;;;;;;;1.46;100.00;98257.81;446758;1241;138834;-60
2024/03/24 03:41:32;;;;;;;8.40;6.80;;;;;;;1.48;100.00;98267.51;446375;1241;138349;-60
2024/03/24 03:51:37;;;;;;;6.90;5.90;;;;;;;1.52;100.00;98265.77;447454;1239;138357;-59
2024/03/24 04:01:40;;;;;;;8.60;7.40;;;;;;;1.61;100.00;98258.64;448213;1238;138520;-60
2024/03/24 04:11:44;;;;;;;9.30;7.40;;;;;;;1.70;100.00;98256.79;446719;1241;138614;-59
2024/03/24 04:21:47;;;;;;;13.40;7.30;;;;;;;1.78;100.00;98245.04;446597;1238;138418;-60
2024/03/24 04:31:50;;;;;;;10.30;6.70;;;;;;;1.82;100.00;98246.54;446579;1241;139209;-59
2024/03/24 04:41:54;;;;;;;8.90;6.80;;;;;;;1.90;100.00;98242.35;446485;1241;138527;-59
2024/03/24 04:51:57;;;;;;;8.90;8.00;;;;;;;2.00;100.00;98244.65;447448;1239;138394;-60
2024/03/24 05:02:00;;;;;;;13.10;8.70;;;;;;;2.01;100.00;98242.34;447192;1241;138308;-61
2024/03/24 05:12:05;;;;;;;9.70;8.10;;;;;;;2.04;100.00;98245.48;447785;1241;138728;-58
2024/03/24 05:22:08;;;;;;;12.40;9.80;;;;;;;2.10;100.00;98240.15;447649;1241;138476;-62
2024/03/24 05:32:14;;;;;;;13.20;10.80;;;;;;;2.20;100.00;98231.91;448227;1239;138791;-61
2024/03/24 05:42:18;;;;;;;14.00;11.50;;;;;;;2.33;100.00;98225.20;446973;1241;139246;-62
2024/03/24 05:52:21;;;;;;;12.10;10.50;;;;;;;2.46;100.00;98232.99;446657;1241;138853;-61
2024/03/24 06:02:24;;;;;;;16.30;13.30;;;;;;;2.49;100.00;98234.73;446759;1239;139009;-60
2024/03/24 06:12:30;;;;;;;15.80;12.90;;;;;;;2.54;100.00;98236.71;447372;1238;139347;-61
2024/03/24 06:22:35;;;;;;;16.30;12.40;;;;;;;2.95;100.00;98228.15;446731;1241;140035;-58
2024/03/24 06:32:41;;;;;;;13.50;12.10;;;;;;;3.29;100.00;98227.00;446694;1237;139638;-59
2024/03/24 06:42:59;;;;;;;13.90;11.50;;;;;;;3.71;100.00;98230.88;447902;1241;139200;-63
2024/03/24 06:53:04;;;;;;;11.80;9.90;;;;;;;4.09;100.00;98233.52;446862;1241;139101;-62
2024/03/24 07:03:08;;;;;;;11.90;10.10;;;;;;;4.01;100.00;98238.13;446890;1241;138863;-62
2024/03/24 07:13:11;;;;;;;11.00;9.60;;;;;;;3.96;100.00;98243.77;446893;1241;140011;-63
2024/03/24 07:23:15;;;;;;;9.20;8.20;;;;;;;3.96;100.00;98254.85;447916;1241;139732;-61
2024/03/24 07:33:18;;;;;;;11.90;8.40;;;;;;;3.86;100.00;98265.63;447232;1237;139548;-62
2024/03/24 07:43:21;;;;;;;12.70;8.50;;;;;;;3.63;100.00;98274.41;447386;1239;138948;-63
2024/03/24 07:53:25;;;;;;;11.70;9.30;;;;;;;3.74;100.00;98271.16;446825;1241;138760;-59
2024/03/24 08:03:28;;;;;;;10.10;7.10;;;;;;;5.71;100.00;98257.31;446308;1241;139158;-57
2024/03/24 08:13:32;;;;;;;8.70;7.10;;;;;;;8.14;100.00;98255.34;446739;1239;138903;-57
2024/03/24 08:23:35;;;;;;;6.90;6.20;;;;;;;8.91;99.95;98253.05;446801;1239;138966;-67
2024/03/24 08:33:38;;;;;;;7.60;6.80;;;;;;;9.15;95.99;98259.63;447296;1239;139385;-57
2024/03/24 08:43:42;;;;;;;6.50;5.80;;;;;;;8.35;93.98;98264.24;448398;1238;139089;-58
2024/03/24 08:53:46;;;;;;;7.00;5.00;;;;;;;8.93;95.05;98253.52;447254;1240;138387;-64
2024/03/24 09:03:49;;;;;;;6.60;4.70;;;;;;;9.75;94.14;98248.39;447129;1238;138942;-72
2024/03/24 09:13:53;;;;;;;6.60;5.90;;;;;;;10.27;90.96;98251.86;447208;1241;138458;-69
2024/03/24 09:23:56;;;;;;;4.80;4.40;;;;;;;10.07;89.35;98249.47;446569;1238;138833;-69
2024/03/24 09:34:04;;;;;;;5.50;3.40;;;;;;;10.76;89.04;98242.81;446418;1241;138454;-54
2024/03/24 09:44:09;;;;;;;6.10;4.30;;;;;;;11.05;86.04;98239.95;446833;1241;137959;-55
2024/03/24 09:54:14;;;;;;;3.90;3.50;;;;;;;9.77;83.50;98245.77;447057;1241;138616;-69
2024/03/24 10:04:21;;;;;;;7.70;5.50;;;;;;;8.32;84.43;98247.33;446754;1241;138428;-70
2024/03/24 10:14:25;;;;;;;5.10;4.40;;;;;;;7.68;87.16;98235.55;447135;1241;137560;-68
2024/03/24 10:24:30;;;;;;;8.50;5.20;;;;;;;7.81;89.31;98230.92;447085;1241;138844;-70
2024/03/24 10:34:35;;;;;;;4.20;3.80;;;;;;;8.18;88.91;98219.07;446584;1241;138975;-69
2024/03/24 10:44:40;;;;;;;4.70;2.50;;;;;;;8.06;87.37;98221.91;446186;1241;138806;-54
2024/03/24 10:54:47;;;;;;;1.40;1.30;;;;;;;7.55;84.54;98224.27;447738;1241;138582;-60
2024/03/24 11:04:51;;;;;;;2.80;1.80;;;;;;;7.48;84.41;98217.30;447760;1238;138633;-59
2024/03/24 11:14:56;;;;;;;1.40;1.30;;;;;;;7.97;84.42;98194.54;447533;1241;138083;-57
2024/03/24 11:25:01;;;;;;;3.20;2.70;;;;;;;8.21;83.84;98183.79;446535;1239;138340;-58
2024/03/24 11:35:08;;;;;;;3.00;2.10;;;;;;;8.06;83.41;98171.02;446343;1241;138560;-60
2024/03/24 11:45:29;;;;;;;4.30;1.90;;;;;;;7.70;82.71;98164.09;446465;1241;138457;-54
2024/03/24 11:55:33;;;;;;;3.10;2.90;;;;;;;8.04;83.41;98149.73;447367;1241;138279;-57
2024/03/24 12:05:36;;;;;;;3.20;2.60;;;;;;;8.19;80.44;98131.86;447130;1241;137609;-62
2024/03/24 12:15:39;;;;;;;4.00;2.60;;;;;;;8.60;75.31;98118.04;446473;1239;356569;-62
2024/03/24 12:25:47;;;;;;;4.30;2.20;;;;;;;8.93;74.34;98109.21;446578;1241;138419;-58
2024/03/24 12:35:53;;;;;;;4.20;2.00;;;;;;;8.97;72.86;98105.56;446276;1241;137821;-58
2024/03/24 12:45:58;;;;;;;2.80;2.20;;;;;;;8.90;71.46;98096.20;447394;1241;138284;-55
2024/03/24 12:56:07;;;;;;;4.10;3.20;;;;;;;8.78;70.83;98096.29;447664;1241;139070;-55
2024/03/24 13:06:13;;;;;;;;;;;;;;;8.48;70.13;98108.13;446908;1238;138184;-70
2024/03/24 13:16:25;;;;;;;2.00;1.10;;;;;;;7.84;69.76;98118.30;446685;1241;124695;-69
2024/03/24 13:26:31;;;;;;;2.30;1.10;;;;;;;6.93;69.43;98121.52;446842;1241;138036;-69
2024/03/24 13:36:52;;;;;;;2.00;1.10;;;;;;;6.46;71.51;98121.73;446464;1241;138095;-69
2024/03/24 13:47:08;;;;;;;4.00;2.10;;;;;;;6.90;74.14;98120.01;447000;1241;138071;-70
2024/03/24 13:57:12;;;;;;;3.60;2.80;;;;;;;7.03;73.92;98120.45;446625;1248;137689;-57
2024/03/24 14:07:17;;;;;;;5.40;3.60;;;;;;;7.01;74.37;98118.02;447314;1241;137657;-58
2024/03/24 14:17:30;;;;;;;6.90;2.80;;;;;;;7.19;74.40;98108.54;446415;1242;138075;-60
2024/03/24 14:27:36;;;;;;;3.30;2.70;;;;;;;7.24;73.74;98094.59;447055;1244;138914;-60
2024/03/24 14:37:56;;;;;;;3.60;2.90;;;;;;;7.19;73.61;98083.29;446871;1242;137602;-58
2024/03/24 14:48:06;;;;;;;10.90;7.20;;;;;;;6.85;73.79;98082.09;446204;1241;138554;-58
2024/03/24 14:58:10;;;;;;;8.30;4.90;;;;;;;6.49;74.25;98071.43;446913;1242;138890;-68
2024/03/24 15:08:13;;;;;;;5.50;4.20;;;;;;;6.31;74.85;98059.68;446406;1244;137671;-69
2024/03/24 15:18:16;;;;;;;5.10;3.00;;;;;;;6.62;75.83;98059.40;446154;1241;137868;-57
2024/03/24 15:28:19;;;;;;;4.70;2.90;;;;;;;6.85;75.16;98058.91;446037;1238;137615;-57
2024/03/24 15:38:23;;;;;;;3.70;2.10;;;;;;;6.78;74.91;98048.88;446681;1238;137646;-57
2024/03/24 15:48:27;;;;;;;2.80;2.50;;;;;;;6.70;74.46;98042.30;446458;1238;137873;-57
2024/03/24 15:58:53;;;;;;;2.50;2.00;;;;;;;6.50;74.04;98039.36;446349;1242;137815;-57
2024/03/24 16:08:56;;;;;;;3.10;1.40;;;;;;;6.25;73.98;98039.79;446702;1241;138275;-58
2024/03/24 16:19:00;;;;;;;6.20;3.20;;;;;;;6.03;74.23;98045.28;446438;1239;137937;-70
2024/03/24 16:29:05;;;;;;;8.70;5.20;;;;;;;5.76;74.62;98043.83;446199;1241;138304;-54
2024/03/24 16:39:09;;;;;;;11.00;5.60;;;;;;;5.43;75.50;98047.07;446537;1241;138756;-58
2024/03/24 16:49:12;;;;;;;16.00;11.50;;;;;;;5.06;76.28;98041.52;446775;1241;138303;-69
2024/03/24 16:59:15;;;;;;;11.60;7.80;;;;;;;4.67;77.10;98040.42;446486;1241;139156;-70
2024/03/24 17:09:19;;;;;;;10.70;7.20;;;;;;;4.26;77.88;98050.77;446984;1241;138744;-60
2024/03/24 17:19:24;;;;;;;15.30;11.20;;;;;;;3.89;78.50;98059.29;446774;1241;139181;-59
2024/03/24 17:29:28;;;;;;;10.30;6.60;;;;;;;3.61;79.66;98066.34;446492;1238;140439;-54
2024/03/24 17:39:31;;;;;;;15.20;9.80;;;;;;;3.52;80.69;98062.00;448111;1241;139159;-52
2024/03/24 17:49:34;;;;;;;12.60;10.30;;;;;;;3.47;81.50;98056.25;447587;1238;138624;-58
2024/03/24 17:59:37;;;;;;;15.80;11.20;;;;;;;3.38;81.69;98058.47;446777;1241;139885;-59
2024/03/24 18:20:04;;;;;;;19.30;13.80;;;;;;;2.96;82.76;98051.04;446425;1238;138843;-55
2024/03/24 18:30:11;;;;;;;20.10;12.80;;;;;;;2.78;83.44;98059.14;446977;1239;139092;-73
2024/03/24 18:40:15;;;;;;;12.80;9.90;;;;;;;2.70;84.28;98053.71;447606;1241;138966;-58
2024/03/24 18:50:21;;;;;;;16.90;12.60;;;;;;;2.74;85.01;98047.30;447599;1241;139645;-70
2024/03/24 19:00:26;;;;;;;16.00;13.00;;;;;;;2.80;85.63;98054.40;447924;1239;139378;-72
2024/03/24 19:10:30;;;;;;;17.90;13.00;;;;;;;2.94;85.87;98056.69;447520;1241;139065;-70
2024/03/24 19:20:33;;;;;;;20.40;11.60;;;;;;;3.10;86.53;98063.75;446974;1241;139075;-62
2024/03/24 19:30:37;;;;;;;13.30;10.90;;;;;;;3.21;87.02;98046.31;446816;1241;139163;-71
2024/03/24 19:40:40;;;;;;;13.70;9.70;;;;;;;3.12;86.68;98044.45;446407;1241;139344;-56
2024/03/24 19:50:43;;;;;;;14.20;10.50;;;;;;;2.84;86.84;98045.52;446777;1238;139635;-53
2024/03/24 20:00:48;;;;;;;13.90;11.80;;;;;;;2.50;87.20;98041.90;448360;1238;138945;-54
2024/03/24 20:10:51;;;;;;;23.10;15.30;;;;;;;2.28;88.14;98041.55;446413;1237;139288;-58
2024/03/24 20:20:58;;;;;;;20.70;14.70;;;;;;;2.13;88.83;98041.80;446293;1239;139349;-55
2024/03/24 20:31:02;;;;;;;17.00;14.00;;;;;;;2.05;89.39;98031.03;446762;1238;138016;-55
2024/03/24 20:41:06;;;;;;;16.00;12.50;;;;;;;2.03;90.06;98028.22;446679;1241;139719;-73
2024/03/24 20:51:10;;;;;;;18.80;13.80;;;;;;;2.01;90.29;98020.03;446952;1238;138932;-70
2024/03/24 21:01:15;;;;;;;16.70;12.90;;;;;;;2.09;90.98;98017.19;447312;1238;139029;-63
2024/03/24 21:11:20;;;;;;;15.20;11.90;;;;;;;2.25;91.69;98011.11;448461;1238;139247;-60
2024/03/24 21:21:27;;;;;;;14.60;11.20;;;;;;;2.41;92.56;97999.39;447143;1238;139506;-59
2024/03/24 21:31:30;;;;;;;13.20;9.30;;;;;;;2.52;92.69;97994.77;447514;1237;142520;-59
2024/03/24 21:51:55;;;;;;;12.90;9.70;;;;;;;2.73;92.45;98000.54;447097;1241;138999;-60
2024/03/24 22:01:58;;;;;;;13.00;11.20;;;;;;;2.76;92.09;98000.33;447679;1237;139731;-57
2024/03/24 22:12:04;;;;;;;15.90;11.00;;;;;;;2.79;91.93;97991.16;447182;1241;139450;-58
2024/03/24 22:22:07;;;;;;;12.00;8.50;;;;;;;2.83;91.94;97981.48;448008;1238;139405;-58
2024/03/24 22:32:11;;;;;;;11.40;8.20;;;;;;;2.87;91.78;97980.00;448181;1241;138744;-57
2024/03/24 22:42:14;;;;;;;11.00;9.30;;;;;;;2.89;91.59;97975.39;447971;1239;139871;-59
2024/03/24 22:52:19;;;;;;;11.50;8.20;;;;;;;2.92;91.83;97965.37;447494;1241;138759;-61
2024/03/24 23:02:22;;;;;;;10.50;7.90;;;;;;;3.00;91.75;97961.10;448441;1241;139188;-61
2024/03/24 23:12:26;;;;;;;12.10;8.50;;;;;;;3.06;91.69;97961.47;449130;1241;139218;-61
2024/03/24 23:22:29;;;;;;;14.80;8.60;;;;;;;3.06;91.57;97966.45;448614;1238;140081;-62
2024/03/24 23:32:32;;;;;;;9.20;7.70;;;;;;;3.05;91.21;97966.17;448156;1239;138671;-61
2024/03/24 23:42:35;;;;;;;11.00;7.80;;;;;;;3.03;91.37;97971.16;447654;1236;138644;-62
2024/03/24 23:52:41;;;;;;;13.80;9.80;;;;;;;2.97;91.00;97960.26;447497;1236;139207;-61
